Time;durP1;ratioP1;P1;durP2;ratioP2;P2;SDS_P1;SDS_P2;PMS_P1;PMS_P2;Temp;Humidity;BMP_temperature;BMP_pressure;BME280_temperature;BME280_humidity;BME280_pressure;Samples;Min_cycle;Max_cycle;Signal;HPM_P1;HPM_P2
2022/10/19 00:01:41;;;;;;;0.80;0.20;;;11.90;99.90;;;;;;5014939;28;20645;-84
2022/10/19 00:04:07;;;;;;;1.73;0.27;;;11.90;99.90;;;;;;5015001;28;20182;-85
2022/10/19 00:06:35;;;;;;;4.17;0.50;;;11.90;99.90;;;;;;5015036;28;20163;-86
2022/10/19 00:09:19;;;;;;;5.20;0.47;;;11.80;99.90;;;;;;5013814;28;20240;-86
2022/10/19 00:11:47;;;;;;;1.30;0.20;;;11.80;99.90;;;;;;5014917;28;20460;-87
2022/10/19 00:14:18;;;;;;;1.53;0.20;;;11.80;99.90;;;;;;5014444;28;20457;-86
2022/10/19 00:16:45;;;;;;;1.53;0.20;;;11.90;99.90;;;;;;5013459;28;20429;-86
2022/10/19 00:19:15;;;;;;;3.50;0.40;;;11.90;99.90;;;;;;5014412;28;20480;-86
2022/10/19 00:21:40;;;;;;;6.70;0.50;;;11.90;99.90;;;;;;5014497;28;20420;-86
2022/10/19 00:24:07;;;;;;;2.90;0.30;;;11.80;99.90;;;;;;5014553;28;20410;-86
2022/10/19 00:26:33;;;;;;;7.40;0.73;;;11.90;99.90;;;;;;5013300;28;20537;-86
2022/10/19 00:28:59;;;;;;;3.23;0.30;;;11.90;99.90;;;;;;5013182;28;20418;-87
2022/10/19 00:31:25;;;;;;;3.53;0.40;;;12.00;99.90;;;;;;5012515;28;20414;-87
2022/10/19 00:33:51;;;;;;;3.83;0.40;;;11.90;99.90;;;;;;5014505;28;20287;-86
2022/10/19 00:36:20;;;;;;;3.70;0.20;;;12.00;99.90;;;;;;5014374;28;20565;-86
2022/10/19 00:38:45;;;;;;;3.93;0.30;;;12.00;99.90;;;;;;5013007;28;20834;-87
2022/10/19 00:41:11;;;;;;;5.20;0.43;;;12.00;99.90;;;;;;5014487;28;20410;-86
2022/10/19 00:44:02;;;;;;;3.47;0.30;;;12.00;99.90;;;;;;5014448;28;20544;-87
2022/10/19 00:46:31;;;;;;;1.93;0.33;;;12.00;99.90;;;;;;5013876;28;20175;-86
2022/10/19 00:49:01;;;;;;;2.17;0.30;;;12.00;99.90;;;;;;5014384;28;20569;-87
2022/10/19 00:51:28;;;;;;;1.50;0.83;;;12.00;99.90;;;;;;5013003;28;20913;-87
2022/10/19 00:53:55;;;;;;;3.80;0.30;;;11.90;99.90;;;;;;5014079;28;20427;-88
2022/10/19 00:56:23;;;;;;;2.60;0.20;;;12.00;99.90;;;;;;5014056;28;20499;-87
2022/10/19 00:58:49;;;;;;;2.07;0.20;;;11.90;99.90;;;;;;5012172;28;20532;-87
2022/10/19 01:01:19;;;;;;;1.47;0.50;;;11.90;99.90;;;;;;5013561;28;20446;-87
2022/10/19 01:03:45;;;;;;;2.87;0.20;;;12.00;99.90;;;;;;5012817;28;20185;-85
2022/10/19 01:06:13;;;;;;;0.97;0.30;;;11.90;99.90;;;;;;5013885;28;20493;-86
2022/10/19 01:08:39;;;;;;;1.47;0.20;;;11.90;99.90;;;;;;5013989;28;20460;-87
2022/10/19 01:11:18;;;;;;;1.37;0.30;;;12.00;99.90;;;;;;5012543;28;20915;-87
2022/10/19 01:14:07;;;;;;;1.53;0.20;;;12.00;99.90;;;;;;5013639;28;20225;-87
2022/10/19 01:16:53;;;;;;;2.73;0.70;;;12.00;99.90;;;;;;5013726;28;20410;-87
2022/10/19 01:19:36;;;;;;;6.90;0.40;;;12.00;99.90;;;;;;5013523;28;20462;-86
2022/10/19 01:22:05;;;;;;;7.80;0.20;;;11.90;99.90;;;;;;5013578;28;20406;-86
2022/10/19 01:25:06;;;;;;;1.10;0.20;;;11.90;99.90;;;;;;5013589;28;20421;-87
2022/10/19 01:27:35;;;;;;;1.63;0.30;;;12.00;99.90;;;;;;5013456;28;20920;-87
2022/10/19 01:30:12;;;;;;;2.53;0.43;;;12.00;99.90;;;;;;5011946;28;20524;-87
2022/10/19 01:32:57;;;;;;;1.43;0.20;;;11.90;99.90;;;;;;5013466;28;20404;-87
2022/10/19 01:36:01;;;;;;;1.63;0.20;;;12.00;99.90;;;;;;5013498;28;20410;-86
2022/10/19 01:38:34;;;;;;;1.70;0.43;;;11.90;99.90;;;;;;5012091;28;20477;-86
2022/10/19 01:41:25;;;;;;;4.90;0.50;;;11.90;99.90;;;;;;5013451;28;20802;-87
2022/10/19 01:44:16;;;;;;;1.63;0.20;;;11.90;99.90;;;;;;5012724;28;20424;-87
2022/10/19 01:47:04;;;;;;;2.03;0.30;;;11.90;99.90;;;;;;5012533;28;20520;-87
2022/10/19 01:49:39;;;;;;;1.87;0.20;;;11.90;99.90;;;;;;5013320;28;20414;-86
2022/10/19 01:52:08;;;;;;;6.50;0.30;;;11.90;99.90;;;;;;5013435;28;20480;-87
2022/10/19 01:54:38;;;;;;;0.80;0.20;;;11.90;99.90;;;;;;5013236;28;20478;-87
2022/10/19 01:57:06;;;;;;;2.83;0.33;;;11.80;99.90;;;;;;5013143;28;20461;-88
2022/10/19 01:59:33;;;;;;;2.33;0.20;;;11.80;99.90;;;;;;5012644;28;21065;-87
2022/10/19 02:02:00;;;;;;;1.20;0.20;;;11.80;99.90;;;;;;5022603;28;20497;-85
2022/10/19 02:04:26;;;;;;;0.83;0.20;;;11.80;99.90;;;;;;5026980;28;20434;-85
2022/10/19 02:06:53;;;;;;;0.87;0.20;;;11.80;99.90;;;;;;5027027;28;20506;-85
2022/10/19 02:09:19;;;;;;;1.87;0.53;;;11.80;99.90;;;;;;5027111;28;20433;-85
2022/10/19 02:11:55;;;;;;;4.57;0.20;;;11.80;99.90;;;;;;5014938;28;20440;-86
2022/10/19 02:14:26;;;;;;;4.67;0.23;;;11.80;99.90;;;;;;5012995;28;20525;-86
2022/10/19 02:17:01;;;;;;;4.30;0.33;;;11.80;99.90;;;;;;5013300;28;20430;-86
2022/10/19 02:19:27;;;;;;;4.97;0.83;;;11.80;99.90;;;;;;5013242;28;20510;-86
2022/10/19 02:21:53;;;;;;;2.87;0.30;;;11.70;99.90;;;;;;5012101;28;20446;-86
2022/10/19 02:24:19;;;;;;;2.43;0.20;;;11.70;99.90;;;;;;5011983;28;20274;-86
2022/10/19 02:26:45;;;;;;;3.40;0.30;;;11.70;99.90;;;;;;5013217;28;20937;-86
2022/10/19 02:29:12;;;;;;;4.00;0.20;;;11.70;99.90;;;;;;5013030;28;20608;-86
2022/10/19 02:31:38;;;;;;;4.73;0.30;;;11.70;99.90;;;;;;5013045;28;20799;-86
2022/10/19 02:34:04;;;;;;;2.73;0.30;;;11.70;99.90;;;;;;5013198;28;20418;-86
2022/10/19 02:36:29;;;;;;;3.63;0.30;;;11.60;99.90;;;;;;5012989;28;20569;-86
2022/10/19 02:38:55;;;;;;;1.53;0.20;;;11.60;99.90;;;;;;5012859;28;20509;-86
2022/10/19 02:41:30;;;;;;;1.73;0.30;;;11.50;99.90;;;;;;5012946;28;20199;-86
2022/10/19 02:44:03;;;;;;;7.60;0.20;;;11.50;99.90;;;;;;5011358;28;20178;-85
2022/10/19 02:46:41;;;;;;;4.50;0.50;;;11.60;99.90;;;;;;5012887;28;20415;-86
2022/10/19 02:49:08;;;;;;;2.63;0.20;;;11.50;99.90;;;;;;5012762;28;20401;-86
2022/10/19 02:51:38;;;;;;;3.53;0.47;;;11.50;99.90;;;;;;5012773;28;20714;-86
2022/10/19 02:54:05;;;;;;;2.47;0.20;;;11.50;99.90;;;;;;5012746;28;20781;-85
2022/10/19 02:56:31;;;;;;;4.00;0.20;;;11.50;99.90;;;;;;5016194;28;20471;-86
2022/10/19 02:58:57;;;;;;;1.77;0.30;;;11.50;99.90;;;;;;5015952;28;20571;-85
2022/10/19 03:01:23;;;;;;;7.50;0.30;;;11.50;99.90;;;;;;5016279;28;20896;-86
2022/10/19 03:03:48;;;;;;;0.60;0.10;;;11.40;99.90;;;;;;5016050;28;20254;-86
2022/10/19 03:06:14;;;;;;;1.40;0.20;;;11.40;99.90;;;;;;5016030;28;20533;-86
2022/10/19 03:08:40;;;;;;;4.03;0.47;;;11.40;99.90;;;;;;5015658;28;20182;-85
2022/10/19 03:11:05;;;;;;;1.93;0.20;;;11.40;99.90;;;;;;5015623;28;20175;-85
2022/10/19 03:13:31;;;;;;;1.50;0.20;;;11.40;99.90;;;;;;5015745;28;20304;-85
2022/10/19 03:15:56;;;;;;;1.30;0.30;;;11.40;99.90;;;;;;5015059;28;20171;-84
2022/10/19 03:18:21;;;;;;;2.77;0.20;;;11.40;99.90;;;;;;5014135;28;20238;-85
2022/10/19 03:20:47;;;;;;;2.27;0.20;;;11.40;99.90;;;;;;5015532;28;20207;-86
2022/10/19 03:23:12;;;;;;;4.77;0.30;;;11.40;99.90;;;;;;5015772;28;20980;-86
2022/10/19 03:25:38;;;;;;;1.70;0.20;;;11.50;99.90;;;;;;5015700;28;20176;-86
2022/10/19 03:28:03;;;;;;;1.83;0.30;;;11.50;99.90;;;;;;5015655;28;20253;-84
2022/10/19 03:30:29;;;;;;;2.53;0.30;;;11.40;99.90;;;;;;5015326;28;20579;-85
2022/10/19 03:32:54;;;;;;;1.83;0.30;;;11.40;99.90;;;;;;5015529;28;20627;-86
2022/10/19 03:35:20;;;;;;;3.70;0.43;;;11.40;99.90;;;;;;5015596;28;20175;-85
2022/10/19 03:37:45;;;;;;;2.10;0.30;;;11.50;99.90;;;;;;5014155;28;20219;-86
2022/10/19 03:40:11;;;;;;;4.80;0.20;;;11.50;99.90;;;;;;5015368;28;20232;-85
2022/10/19 03:42:36;;;;;;;1.23;0.20;;;11.50;99.90;;;;;;5015454;28;20174;-86
2022/10/19 03:45:02;;;;;;;1.07;0.20;;;11.50;99.90;;;;;;5013909;28;20179;-86
2022/10/19 03:47:28;;;;;;;3.27;0.20;;;11.50;99.90;;;;;;5015159;28;20173;-85
2022/10/19 03:49:53;;;;;;;1.83;0.50;;;11.50;99.90;;;;;;5013879;28;20791;-85
2022/10/19 03:52:19;;;;;;;3.70;0.20;;;11.50;99.90;;;;;;5015380;28;20171;-85
2022/10/19 03:54:45;;;;;;;1.97;0.33;;;11.40;99.90;;;;;;5015150;28;20283;-85
2022/10/19 03:57:11;;;;;;;2.97;0.33;;;11.40;99.90;;;;;;5013844;28;20632;-85
2022/10/19 03:59:37;;;;;;;2.40;0.20;;;11.40;99.90;;;;;;5014591;28;20527;-85
2022/10/19 04:02:03;;;;;;;1.80;0.30;;;11.40;99.90;;;;;;5014943;28;20182;-85
2022/10/19 04:04:28;;;;;;;0.77;0.20;;;11.40;99.90;;;;;;5014949;28;20179;-85
2022/10/19 04:06:54;;;;;;;1.53;0.30;;;11.40;99.90;;;;;;5014157;28;20831;-86
2022/10/19 04:09:20;;;;;;;1.80;0.20;;;11.40;99.90;;;;;;5014693;28;20545;-84
2022/10/19 04:11:47;;;;;;;2.53;0.67;;;11.30;99.90;;;;;;5014866;28;20179;-85
2022/10/19 04:14:14;;;;;;;1.87;0.20;;;11.30;99.90;;;;;;5014253;28;20992;-85
2022/10/19 04:16:40;;;;;;;2.83;0.37;;;11.30;99.90;;;;;;5014676;28;20411;-86
2022/10/19 04:19:05;;;;;;;1.07;0.30;;;11.40;99.90;;;;;;5014573;28;20830;-85
2022/10/19 04:21:32;;;;;;;1.30;0.20;;;11.40;99.90;;;;;;5013746;28;20186;-86
2022/10/19 04:24:04;;;;;;;3.00;0.20;;;11.40;99.90;;;;;;5014605;28;20197;-86
2022/10/19 04:26:30;;;;;;;3.20;0.20;;;11.30;99.90;;;;;;5014507;28;20414;-86
2022/10/19 04:29:00;;;;;;;0.87;0.30;;;11.40;99.90;;;;;;5014106;28;20555;-87
2022/10/19 04:31:27;;;;;;;1.70;0.20;;;11.40;99.90;;;;;;5013280;28;20520;-86
2022/10/19 04:33:53;;;;;;;2.33;0.20;;;11.40;99.90;;;;;;5014319;28;20414;-86
2022/10/19 04:36:19;;;;;;;2.03;0.20;;;11.40;99.90;;;;;;5013123;28;20423;-85
2022/10/19 04:38:44;;;;;;;1.57;0.20;;;11.30;99.90;;;;;;5014337;28;20236;-85
2022/10/19 04:41:13;;;;;;;1.53;0.20;;;11.40;99.90;;;;;;5014291;28;20417;-86
2022/10/19 04:43:38;;;;;;;1.83;0.20;;;11.30;99.90;;;;;;5013967;28;20171;-86
2022/10/19 04:46:09;;;;;;;2.30;0.20;;;11.40;99.90;;;;;;5014188;28;20425;-86
2022/10/19 04:48:37;;;;;;;0.83;0.20;;;11.40;99.90;;;;;;5014168;28;20420;-86
2022/10/19 04:51:03;;;;;;;2.10;0.20;;;11.30;99.90;;;;;;5014112;28;20412;-86
2022/10/19 04:53:28;;;;;;;1.50;0.20;;;11.20;99.90;;;;;;5012835;28;20426;-86
2022/10/19 04:55:54;;;;;;;2.30;0.20;;;11.20;99.90;;;;;;5012808;28;20526;-85
2022/10/19 04:58:20;;;;;;;1.70;0.27;;;11.20;99.90;;;;;;5013889;28;20211;-85
2022/10/19 05:00:45;;;;;;;2.07;0.23;;;11.10;99.90;;;;;;5013582;28;20639;-86
2022/10/19 05:03:11;;;;;;;2.10;0.40;;;11.20;99.90;;;;;;5013876;28;20698;-85
2022/10/19 05:05:37;;;;;;;3.50;0.30;;;11.20;99.90;;;;;;5013849;28;20236;-86
2022/10/19 05:08:02;;;;;;;2.47;0.30;;;11.20;99.90;;;;;;5013855;28;20182;-86
2022/10/19 05:10:28;;;;;;;1.70;0.30;;;11.30;99.90;;;;;;5013703;28;20661;-85
2022/10/19 05:12:54;;;;;;;5.60;0.57;;;11.20;99.90;;;;;;5013759;28;20174;-86
2022/10/19 05:15:19;;;;;;;1.47;0.20;;;11.10;99.90;;;;;;5025870;28;20745;-85
2022/10/19 05:17:45;;;;;;;2.13;0.33;;;11.20;99.90;;;;;;5032774;28;20545;-87
2022/10/19 05:20:11;;;;;;;2.87;0.20;;;11.20;99.90;;;;;;5031794;28;20542;-87
2022/10/19 05:22:37;;;;;;;0.80;0.20;;;11.20;99.90;;;;;;5033422;28;20252;-85
2022/10/19 05:25:07;;;;;;;1.10;0.33;;;11.10;99.90;;;;;;5033292;28;20179;-87
2022/10/19 05:27:32;;;;;;;2.00;0.23;;;11.10;99.90;;;;;;5033281;28;20420;-86
2022/10/19 05:29:58;;;;;;;1.27;0.20;;;11.10;99.90;;;;;;5032938;28;20775;-86
2022/10/19 05:32:23;;;;;;;2.90;0.40;;;11.10;99.90;;;;;;5033190;28;20172;-86
2022/10/19 05:34:49;;;;;;;2.33;0.20;;;11.10;99.90;;;;;;5033201;28;20170;-86
2022/10/19 05:37:15;;;;;;;1.13;0.30;;;11.10;99.90;;;;;;5033173;28;20165;-86
2022/10/19 05:39:41;;;;;;;1.53;0.40;;;11.10;99.90;;;;;;5031786;28;20302;-86
2022/10/19 05:42:07;;;;;;;2.37;0.30;;;11.10;99.90;;;;;;5032980;28;20470;-86
2022/10/19 05:44:33;;;;;;;2.87;0.73;;;11.10;99.90;;;;;;5032655;28;20451;-85
2022/10/19 05:46:59;;;;;;;2.80;0.43;;;11.10;99.90;;;;;;5032360;28;20174;-84
2022/10/19 05:49:25;;;;;;;2.57;0.43;;;11.10;99.90;;;;;;5033860;28;20169;-87
2022/10/19 05:51:50;;;;;;;1.57;0.50;;;11.10;99.90;;;;;;5032707;28;20421;-85
2022/10/19 05:54:16;;;;;;;2.13;0.43;;;11.10;99.90;;;;;;5033875;28;20178;-86
2022/10/19 05:56:42;;;;;;;2.77;0.30;;;11.20;99.90;;;;;;5034014;28;20708;-86
2022/10/19 05:59:11;;;;;;;2.20;0.30;;;11.10;99.90;;;;;;5033375;28;20217;-85
2022/10/19 06:01:37;;;;;;;4.07;0.33;;;11.10;99.90;;;;;;5033423;28;20411;-86
2022/10/19 06:04:03;;;;;;;4.40;0.90;;;11.10;99.90;;;;;;5032826;28;20430;-87
2022/10/19 06:06:30;;;;;;;3.37;0.30;;;11.10;99.90;;;;;;5032715;28;20525;-86
2022/10/19 06:08:56;;;;;;;2.00;0.30;;;11.00;99.90;;;;;;5031568;28;20428;-86
2022/10/19 06:11:25;;;;;;;2.90;0.40;;;11.10;99.90;;;;;;5032776;28;20404;-86
2022/10/19 06:13:54;;;;;;;1.53;0.30;;;11.20;99.90;;;;;;5032226;28;20556;-86
2022/10/19 06:16:22;;;;;;;1.40;0.20;;;11.10;99.90;;;;;;5032925;28;20470;-87
2022/10/19 06:18:48;;;;;;;3.57;0.50;;;11.10;99.90;;;;;;5032760;28;20472;-85
2022/10/19 06:21:16;;;;;;;0.30;0.20;;;11.20;99.90;;;;;;5031449;28;20797;-86
2022/10/19 06:23:42;;;;;;;3.70;0.73;;;11.20;99.90;;;;;;5032576;28;20597;-86
2022/10/19 06:26:12;;;;;;;1.77;0.30;;;11.20;99.90;;;;;;5031504;28;20424;-86
2022/10/19 06:28:39;;;;;;;2.50;0.20;;;11.20;99.90;;;;;;5032046;28;20176;-86
2022/10/19 06:31:06;;;;;;;2.30;0.30;;;11.20;99.90;;;;;;5036305;28;20400;-86
2022/10/19 06:33:32;;;;;;;1.30;0.20;;;11.20;99.90;;;;;;5037069;28;20422;-86
2022/10/19 06:36:18;;;;;;;1.10;0.27;;;11.30;99.90;;;;;;5036817;28;20418;-86
2022/10/19 06:38:44;;;;;;;2.13;0.30;;;11.30;99.90;;;;;;5036575;28;20201;-86
2022/10/19 06:41:10;;;;;;;2.53;0.40;;;11.40;99.90;;;;;;5036984;28;20428;-87
2022/10/19 06:43:39;;;;;;;1.77;0.20;;;11.60;99.90;;;;;;5035332;28;20193;-86
2022/10/19 06:46:07;;;;;;;4.07;0.47;;;11.80;99.90;;;;;;5036757;28;20448;-86
2022/10/19 06:48:33;;;;;;;2.23;0.70;;;12.00;99.90;;;;;;5036679;28;20409;-86
2022/10/19 06:51:00;;;;;;;4.57;0.40;;;11.90;99.90;;;;;;5034788;28;20438;-85
2022/10/19 06:53:27;;;;;;;0.50;0.30;;;11.90;99.90;;;;;;5036064;28;20202;-86
2022/10/19 06:55:56;;;;;;;2.40;0.30;;;11.70;99.90;;;;;;5036037;28;20500;-87
2022/10/19 06:58:22;;;;;;;4.43;0.33;;;11.70;99.90;;;;;;5035525;28;20552;-86
2022/10/19 07:00:57;;;;;;;2.97;0.43;;;11.60;99.90;;;;;;5034494;28;20840;-86
2022/10/19 07:03:27;;;;;;;3.80;0.40;;;11.70;99.90;;;;;;5034888;28;20212;-85
2022/10/19 07:05:54;;;;;;;1.03;0.20;;;11.80;99.90;;;;;;5034667;28;20508;-85
2022/10/19 07:08:20;;;;;;;2.93;0.47;;;11.80;99.90;;;;;;5030181;28;20414;-86
2022/10/19 07:10:53;;;;;;;1.53;0.43;;;11.90;99.90;;;;;;5033691;28;20771;-90
2022/10/19 07:13:19;;;;;;;5.30;0.63;;;11.90;99.90;;;;;;5033837;28;20222;-91
2022/10/19 07:15:45;;;;;;;1.87;0.30;;;12.00;99.90;;;;;;5034895;28;20428;-90
2022/10/19 07:18:11;;;;;;;3.67;0.50;;;12.30;99.90;;;;;;5038054;28;20222;-87
2022/10/19 07:20:36;;;;;;;2.87;0.30;;;12.30;99.90;;;;;;5030009;28;20181;-86
2022/10/19 07:23:02;;;;;;;4.03;0.20;;;12.40;99.90;;;;;;5027010;28;20191;-87
2022/10/19 07:25:29;;;;;;;2.30;0.20;;;12.40;99.90;;;;;;5026476;28;20183;-88
2022/10/19 07:27:54;;;;;;;5.80;0.40;;;12.60;99.90;;;;;;5029727;28;20183;-87
2022/10/19 07:30:20;;;;;;;4.03;0.43;;;12.90;99.90;;;;;;5023628;28;20415;-87
2022/10/19 07:32:45;;;;;;;3.43;0.20;;;13.30;99.90;;;;;;5041124;28;20634;-87
2022/10/19 07:35:11;;;;;;;1.63;0.37;;;14.70;99.90;;;;;;5026050;28;20227;-85
2022/10/19 07:37:36;;;;;;;5.00;0.43;;;16.30;1.00;;;;;;5023994;28;20186;-84
2022/10/19 07:40:02;;;;;;;2.10;0.30;;;16.70;12.40;;;;;;5018264;28;20608;-88
2022/10/19 07:42:29;;;;;;;7.10;0.83;;;15.90;99.90;;;;;;5014418;28;20261;-88
2022/10/19 07:44:55;;;;;;;3.33;0.90;;;16.00;99.90;;;;;;5014971;28;20412;-85
2022/10/19 07:47:20;;;;;;;2.57;0.60;;;16.40;1.00;;;;;;5015173;28;20425;-85
2022/10/19 07:49:46;;;;;;;1.80;0.30;;;16.40;57.20;;;;;;5015145;28;20627;-84
2022/10/19 07:52:12;;;;;;;7.33;1.43;;;17.20;1.00;;;;;;5015024;28;20602;-85
2022/10/19 07:54:37;;;;;;;4.20;0.80;;;17.90;99.90;;;;;;5016372;28;20644;-86
2022/10/19 07:57:03;;;;;;;2.20;0.20;;;18.00;99.90;;;;;;5017388;28;20175;-87
2022/10/19 07:59:28;;;;;;;2.00;0.47;;;16.80;1.00;;;;;;5013443;28;20215;-87
2022/10/19 08:01:55;;;;;;;2.53;0.37;;;17.30;1.00;;;;;;5014984;28;20171;-87
2022/10/19 08:04:21;;;;;;;3.70;0.50;;;17.90;99.90;;;;;;5014930;28;20171;-88
2022/10/19 08:06:47;;;;;;;1.90;0.70;;;18.90;99.90;;;;;;5014786;28;20459;-87
2022/10/19 08:09:13;;;;;;;2.60;0.50;;;19.40;99.90;;;;;;5014724;28;20171;-86
2022/10/19 08:11:38;;;;;;;2.97;0.50;;;19.80;99.90;;;;;;5014763;28;20542;-85
2022/10/19 08:14:04;;;;;;;3.00;0.30;;;21.20;99.90;;;;;;5012837;28;20572;-84
2022/10/19 08:16:36;;;;;;;2.50;0.40;;;20.20;99.90;;;;;;5014643;28;20262;-84
2022/10/19 08:19:07;;;;;;;4.27;0.40;;;21.00;99.90;;;;;;5013233;28;20570;-84
2022/10/19 08:21:33;;;;;;;1.63;0.30;;;20.20;99.90;;;;;;5024360;28;20425;-84
2022/10/19 08:23:59;;;;;;;3.50;0.30;;;19.60;99.90;;;;;;5025639;28;20488;-84
2022/10/19 08:26:28;;;;;;;2.67;0.30;;;20.80;99.90;;;;;;5048674;28;20934;-84
2022/10/19 08:29:05;;;;;;;2.53;0.33;;;21.60;99.90;;;;;;5019337;28;20265;-85
2022/10/19 08:31:31;;;;;;;4.37;0.70;;;21.60;99.90;;;;;;5023673;28;20410;-86
2022/10/19 08:33:57;;;;;;;2.57;0.40;;;21.80;99.90;;;;;;5022967;28;20416;-86
2022/10/19 08:36:23;;;;;;;2.73;0.20;;;22.10;99.90;;;;;;5023312;28;20493;-86
2022/10/19 08:38:49;;;;;;;1.30;0.30;;;22.70;99.90;;;;;;5023174;28;20460;-87
2022/10/19 08:41:24;;;;;;;2.00;0.70;;;22.10;99.90;;;;;;5023105;28;20412;-87
2022/10/19 08:44:29;;;;;;;4.17;0.50;;;20.80;99.90;;;;;;5024240;28;20561;-85
2022/10/19 08:47:07;;;;;;;4.00;0.30;;;20.30;99.90;;;;;;5022947;28;20426;-85
2022/10/19 08:49:33;;;;;;;2.30;0.30;;;18.90;99.90;;;;;;5033823;28;20440;-85
2022/10/19 08:52:22;;;;;;;3.63;0.67;;;18.70;99.90;;;;;;5033775;28;20448;-84
2022/10/19 08:54:53;;;;;;;5.37;0.70;;;19.30;99.90;;;;;;5033663;28;20638;-85
2022/10/19 08:57:32;;;;;;;1.63;0.33;;;19.80;99.90;;;;;;5049000;28;20871;-85
2022/10/19 09:00:16;;;;;;;3.37;0.50;;;20.50;99.90;;;;;;5033119;28;20465;-85
2022/10/19 09:03:03;;;;;;;3.50;0.53;;;19.30;99.90;;;;;;5033638;28;20412;-84
2022/10/19 09:05:39;;;;;;;1.23;0.20;;;17.50;99.90;;;;;;5033552;28;20425;-84
2022/10/19 09:08:08;;;;;;;3.70;0.70;;;17.00;1.00;;;;;;5033484;28;20443;-85
2022/10/19 09:10:47;;;;;;;3.30;0.40;;;16.00;1.00;;;;;;5033375;28;20401;-86
2022/10/19 09:13:20;;;;;;;2.83;0.60;;;15.40;28.20;;;;;;5032816;28;20409;-85
2022/10/19 09:15:48;;;;;;;2.37;0.40;;;15.10;99.90;;;;;;5033301;28;20504;-84
2022/10/19 09:18:27;;;;;;;5.90;0.80;;;15.30;99.90;;;;;;5033260;28;20468;-84
2022/10/19 09:21:21;;;;;;;5.17;0.53;;;17.90;7.50;;;;;;5033229;28;20417;-84
2022/10/19 09:23:59;;;;;;;7.90;0.73;;;17.30;1.00;;;;;;5033125;28;20632;-85
2022/10/19 09:26:30;;;;;;;1.70;0.30;;;16.40;99.90;;;;;;5048626;28;20420;-86
2022/10/19 09:29:12;;;;;;;3.40;0.50;;;15.80;1.00;;;;;;5032944;28;20407;-83
2022/10/19 09:31:41;;;;;;;2.00;0.50;;;15.50;99.90;;;;;;5033122;28;20938;-85
2022/10/19 09:34:25;;;;;;;1.47;0.43;;;15.40;99.90;;;;;;5033090;28;20945;-84
2022/10/19 09:36:56;;;;;;;3.50;0.30;;;17.00;1.00;;;;;;5033119;28;20942;-85
2022/10/19 09:39:24;;;;;;;2.83;1.33;;;20.60;99.90;;;;;;5033013;28;20492;-85
2022/10/19 09:41:53;;;;;;;2.77;0.50;;;22.00;99.90;;;;;;5033001;28;20422;-87
2022/10/19 09:44:21;;;;;;;2.87;0.87;;;22.60;99.90;;;;;;5032630;28;20424;-84
2022/10/19 09:46:51;;;;;;;4.73;1.73;;;23.10;99.90;;;;;;5032998;28;20417;-87
2022/10/19 09:49:38;;;;;;;1.87;0.40;;;23.60;99.90;;;;;;5032986;28;20832;-86
2022/10/19 09:52:03;;;;;;;3.77;0.50;;;23.10;99.90;;;;;;5032950;28;20413;-86
2022/10/19 09:54:37;;;;;;;2.93;0.30;;;19.70;99.90;;;;;;5032981;28;20439;-87
2022/10/19 09:57:04;;;;;;;1.63;0.30;;;17.80;99.90;;;;;;5032893;28;20182;-87
2022/10/19 09:59:35;;;;;;;2.97;0.60;;;17.10;99.90;;;;;;5032545;28;20514;-86
2022/10/19 10:02:17;;;;;;;2.03;0.30;;;20.30;99.90;;;;;;5032975;28;20484;-86
2022/10/19 10:05:06;;;;;;;1.63;0.30;;;20.30;99.90;;;;;;5033867;28;20885;-86
2022/10/19 10:07:37;;;;;;;4.03;0.63;;;18.20;99.90;;;;;;5037028;28;20416;-85
2022/10/19 10:10:22;;;;;;;1.90;0.20;;;17.30;99.90;;;;;;5052212;28;20868;-87
2022/10/19 10:12:48;;;;;;;2.00;0.23;;;16.60;99.90;;;;;;5051904;28;20413;-87
2022/10/19 10:15:22;;;;;;;2.17;0.20;;;16.20;1.00;;;;;;5036635;28;20484;-86
2022/10/19 10:17:48;;;;;;;1.80;0.20;;;16.00;99.90;;;;;;5025039;28;20405;-86
2022/10/19 10:20:22;;;;;;;2.73;0.37;;;15.70;1.00;;;;;;5026819;28;20420;-85
2022/10/19 10:22:56;;;;;;;2.60;0.30;;;15.50;99.90;;;;;;5026068;28;20420;-86
2022/10/19 10:25:25;;;;;;;2.23;0.37;;;15.40;99.90;;;;;;5026669;28;20426;-85
2022/10/19 10:28:18;;;;;;;3.00;0.40;;;15.40;99.90;;;;;;5026781;28;20423;-86
2022/10/19 10:30:46;;;;;;;0.40;0.20;;;15.40;37.80;;;;;;5022284;28;20409;-85
2022/10/19 10:33:18;;;;;;;0.90;0.20;;;15.40;1.00;;;;;;5027081;28;20424;-85
2022/10/19 10:35:52;;;;;;;1.50;0.30;;;15.40;1.00;;;;;;5026601;28;20529;-85
2022/10/19 10:38:23;;;;;;;1.77;0.20;;;15.10;99.90;;;;;;5027652;28;20479;-85
2022/10/19 10:40:53;;;;;;;5.63;0.50;;;14.90;1.00;;;;;;5025174;28;20917;-86
2022/10/19 10:43:23;;;;;;;1.33;0.20;;;14.90;99.90;;;;;;5026180;28;20420;-85
2022/10/19 10:45:51;;;;;;;2.03;0.43;;;14.90;99.90;;;;;;5022917;28;20843;-86
2022/10/19 10:48:38;;;;;;;0.73;0.20;;;14.80;1.00;;;;;;5039645;28;20844;-86
2022/10/19 10:51:17;;;;;;;1.53;0.50;;;14.50;1.00;;;;;;5033931;28;20447;-86
2022/10/19 10:53:43;;;;;;;2.23;0.50;;;14.30;99.90;;;;;;5035347;28;20766;-86
2022/10/19 10:56:28;;;;;;;6.13;0.60;;;14.30;1.00;;;;;;5033906;28;20432;-85
2022/10/19 10:59:13;;;;;;;5.80;0.60;;;14.30;99.90;;;;;;5035326;28;20662;-86
2022/10/19 11:01:51;;;;;;;3.60;0.20;;;14.20;99.90;;;;;;5036068;28;20767;-85
2022/10/19 11:04:22;;;;;;;2.07;0.27;;;14.10;21.20;;;;;;5036094;28;20435;-85
2022/10/19 11:06:55;;;;;;;2.93;0.40;;;14.00;1.00;;;;;;5036091;28;20416;-85
2022/10/19 11:09:24;;;;;;;0.60;0.20;;;13.80;4.50;;;;;;5035996;28;20443;-85
2022/10/19 11:11:54;;;;;;;0.80;0.30;;;13.80;99.90;;;;;;5035882;28;20397;-86
2022/10/19 11:14:32;;;;;;;2.10;0.30;;;15.40;16.70;;;;;;5035185;28;20906;-85
2022/10/19 11:17:05;;;;;;;1.47;0.30;;;17.90;99.90;;;;;;5031550;28;20414;-85
2022/10/19 11:19:43;;;;;;;3.40;0.57;;;18.20;99.90;;;;;;5031806;28;20534;-85
2022/10/19 11:22:41;;;;;;;2.17;0.30;;;17.00;99.90;;;;;;5035561;28;20928;-86
2022/10/19 11:25:20;;;;;;;0.60;0.20;;;16.20;99.90;;;;;;5034435;28;20432;-86
2022/10/19 11:28:02;;;;;;;4.97;0.90;;;16.20;99.90;;;;;;5035237;28;20507;-86
2022/10/19 11:30:34;;;;;;;1.53;0.20;;;16.50;99.90;;;;;;5035428;28;20415;-86
2022/10/19 11:33:39;;;;;;;2.50;0.20;;;17.10;99.90;;;;;;5035337;28;20416;-85
2022/10/19 11:36:19;;;;;;;1.23;0.30;;;16.80;99.90;;;;;;5031465;28;20436;-86
2022/10/19 11:39:17;;;;;;;2.63;0.20;;;17.30;99.90;;;;;;5017832;28;20791;-85
2022/10/19 11:41:54;;;;;;;2.90;0.30;;;18.00;99.90;;;;;;5015529;28;20818;-86
2022/10/19 11:44:51;;;;;;;0.50;0.20;;;19.30;99.90;;;;;;5014999;28;20921;-86
2022/10/19 11:47:38;;;;;;;2.33;0.23;;;18.50;99.90;;;;;;5015027;28;20426;-85
2022/10/19 11:50:31;;;;;;;2.70;0.20;;;17.10;99.90;;;;;;5021645;28;20436;-85
2022/10/19 11:53:21;;;;;;;2.00;0.30;;;16.40;99.90;;;;;;5015190;28;20414;-86
2022/10/19 11:55:59;;;;;;;3.30;0.37;;;15.80;49.90;;;;;;5017585;28;20480;-86
2022/10/19 11:58:48;;;;;;;2.70;0.50;;;15.30;99.90;;;;;;5014847;28;20961;-86
2022/10/19 12:01:50;;;;;;;1.03;0.40;;;15.10;99.90;;;;;;5014798;28;20985;-85
2022/10/19 12:04:40;;;;;;;2.73;0.30;;;15.10;1.00;;;;;;5014923;28;20416;-86
2022/10/19 12:07:31;;;;;;;1.63;0.20;;;15.10;1.00;;;;;;5014996;28;20404;-85
2022/10/19 12:10:11;;;;;;;0.60;0.30;;;15.10;1.00;;;;;;5014981;28;20417;-88
2022/10/19 12:12:43;;;;;;;2.70;0.50;;;15.30;99.90;;;;;;5013187;28;20948;-86
2022/10/19 12:15:28;;;;;;;2.33;0.40;;;16.00;99.90;;;;;;5029857;28;20462;-88
2022/10/19 12:17:59;;;;;;;2.00;0.30;;;16.10;99.90;;;;;;5014765;28;20421;-88
2022/10/19 12:20:38;;;;;;;1.07;0.20;;;16.40;1.00;;;;;;5014867;28;20910;-88
2022/10/19 12:23:20;;;;;;;1.43;0.20;;;16.40;99.90;;;;;;5014834;28;20468;-87
2022/10/19 12:25:46;;;;;;;4.83;0.33;;;16.30;99.90;;;;;;5013374;28;20914;-88
2022/10/19 12:28:32;;;;;;;1.27;0.30;;;16.50;99.90;;;;;;5029074;28;20426;-89
2022/10/19 12:30:59;;;;;;;0.73;0.20;;;16.20;99.90;;;;;;5014821;28;20970;-89
2022/10/19 12:33:50;;;;;;;2.20;0.20;;;16.20;99.90;;;;;;5014524;28;21007;-87
2022/10/19 12:36:35;;;;;;;1.37;0.30;;;16.10;99.90;;;;;;5014584;28;20976;-89
2022/10/19 12:39:21;;;;;;;3.10;0.40;;;16.10;99.90;;;;;;5018605;28;20973;-88
2022/10/19 12:42:14;;;;;;;1.80;0.40;;;16.00;99.90;;;;;;5045564;28;20508;-87
2022/10/19 12:44:46;;;;;;;1.70;0.30;;;16.00;1.00;;;;;;5032263;28;20963;-87
2022/10/19 12:47:21;;;;;;;1.43;0.20;;;16.20;1.00;;;;;;5034255;28;20413;-85
2022/10/19 12:49:48;;;;;;;3.13;0.20;;;16.10;1.00;;;;;;5034566;28;20909;-86
2022/10/19 12:52:32;;;;;;;0.40;0.20;;;16.10;1.00;;;;;;5033197;28;20467;-88
2022/10/19 12:55:23;;;;;;;1.37;0.20;;;16.10;99.90;;;;;;5034309;28;20980;-90
2022/10/19 12:58:14;;;;;;;1.50;0.90;;;16.50;1.00;;;;;;5030518;28;20419;-87
2022/10/19 13:00:39;;;;;;;1.33;0.20;;;16.50;99.90;;;;;;5032716;28;20470;-88
2022/10/19 13:03:16;;;;;;;2.23;0.40;;;16.60;99.90;;;;;;5034174;28;20787;-86
2022/10/19 13:05:53;;;;;;;3.00;0.50;;;16.40;99.90;;;;;;5033023;28;20173;-87
2022/10/19 13:08:29;;;;;;;1.63;0.20;;;16.30;99.90;;;;;;5034144;28;20405;-90
2022/10/19 13:11:15;;;;;;;0.77;0.20;;;16.20;99.90;;;;;;5034014;28;20414;-87